createdAt,value
2023-02-11T00:01:52.823Z,86.73
2023-02-11T00:03:59.015Z,86.76
2023-02-11T00:06:05.448Z,86.67
2023-02-11T00:08:10.322Z,86.73
2023-02-11T00:10:18.592Z,86.90
2023-02-11T00:12:23.736Z,86.97
2023-02-11T00:14:28.835Z,86.85
2023-02-11T00:16:38.011Z,86.77
2023-02-11T00:18:43.170Z,86.79
2023-02-11T00:20:56.679Z,86.58
2023-02-11T00:23:03.172Z,86.34
2023-02-11T00:25:09.260Z,86.55
2023-02-11T00:27:16.775Z,86.44
2023-02-11T00:29:21.688Z,86.04
2023-02-11T00:31:27.618Z,86.23
2023-02-11T00:33:37.204Z,85.97
2023-02-11T00:35:42.349Z,85.67
2023-02-11T00:37:47.252Z,85.89
2023-02-11T00:39:53.192Z,85.47
2023-02-11T00:41:58.770Z,85.56
2023-02-11T00:44:06.821Z,85.90
2023-02-11T00:46:12.215Z,85.45
2023-02-11T00:48:17.388Z,85.51
2023-02-11T00:50:23.350Z,85.64
2023-02-11T00:52:30.640Z,85.30
2023-02-11T00:54:36.383Z,85.79
2023-02-11T00:56:41.450Z,85.65
2023-02-11T00:58:46.695Z,85.21
2023-02-11T01:00:54.762Z,84.95
2023-02-11T01:03:00.114Z,85.30
2023-02-11T01:05:07.576Z,84.84
2023-02-11T01:07:12.499Z,85.00
2023-02-11T01:09:21.334Z,84.90
2023-02-11T01:11:26.588Z,85.31
2023-02-11T01:13:33.737Z,84.78
2023-02-11T01:15:40.419Z,84.89
2023-02-11T01:17:51.223Z,85.31
2023-02-11T01:19:58.993Z,85.10
2023-02-11T01:22:03.949Z,85.60
2023-02-11T01:24:11.722Z,85.57
2023-02-11T01:26:17.018Z,85.43
2023-02-11T01:28:24.793Z,85.57
2023-02-11T01:30:29.883Z,85.47
2023-02-11T01:32:34.748Z,85.70
2023-02-11T01:34:42.863Z,85.88
2023-02-11T01:36:48.104Z,86.16
2023-02-11T01:38:53.524Z,86.25
2023-02-11T01:41:01.922Z,86.30
2023-02-11T01:43:07.054Z,86.67
2023-02-11T01:45:41.910Z,86.81
2023-02-11T01:47:46.813Z,86.65
2023-02-11T01:50:00.913Z,87.02
2023-02-11T01:52:12.959Z,86.91
2023-02-11T01:54:38.050Z,87.31
2023-02-11T01:57:00.806Z,87.38
2023-02-11T01:59:10.638Z,87.73
2023-02-11T02:01:22.778Z,87.98
2023-02-11T02:03:28.494Z,88.16
2023-02-11T02:05:43.062Z,88.29
2023-02-11T02:07:54.205Z,88.56
2023-02-11T02:10:04.918Z,88.51
2023-02-11T02:12:10.057Z,88.65
2023-02-11T02:14:17.044Z,88.69
2023-02-11T02:16:27.973Z,88.86
2023-02-11T02:18:47.068Z,89.38
2023-02-11T02:21:25.324Z,89.18
2023-02-11T02:23:47.015Z,89.31
2023-02-11T02:26:12.893Z,89.79
2023-02-11T02:28:36.589Z,89.97
2023-02-11T02:31:04.006Z,90.14
2023-02-11T02:33:28.981Z,90.58
2023-02-11T02:35:42.872Z,90.21
2023-02-11T02:38:02.863Z,90.46
2023-02-11T02:40:16.064Z,90.58
2023-02-11T02:42:21.519Z,90.80
2023-02-11T02:44:27.280Z,90.84
2023-02-11T02:46:37.167Z,91.49
2023-02-11T02:48:45.270Z,91.39
2023-02-11T02:50:58.125Z,91.37
2023-02-11T02:53:15.869Z,91.51
2023-02-11T02:55:47.921Z,91.49
2023-02-11T02:58:22.590Z,91.54
2023-02-11T03:00:38.848Z,91.76
2023-02-11T03:02:54.112Z,91.95
2023-02-11T03:05:09.805Z,91.75
2023-02-11T03:07:25.309Z,91.82
2023-02-11T03:09:39.210Z,92.17
2023-02-11T03:11:45.408Z,92.50
2023-02-11T03:13:53.466Z,92.84
2023-02-11T03:16:03.394Z,92.14
2023-02-11T03:18:11.932Z,92.62
2023-02-11T03:20:23.439Z,92.68
2023-02-11T03:22:31.441Z,93.00
2023-02-11T03:24:40.409Z,92.61
2023-02-11T03:26:50.206Z,92.87
2023-02-11T03:29:03.652Z,93.19
2023-02-11T03:31:17.102Z,93.27
2023-02-11T03:33:31.250Z,92.87
2023-02-11T03:35:46.617Z,92.74
2023-02-11T03:37:57.947Z,92.95
2023-02-11T03:40:10.963Z,93.20
2023-02-11T03:42:18.892Z,93.03
2023-02-11T03:44:25.976Z,92.90
2023-02-11T03:46:36.713Z,93.25
2023-02-11T03:48:45.142Z,92.91
2023-02-11T03:50:55.844Z,93.23
2023-02-11T03:53:10.924Z,93.11
2023-02-11T03:55:20.213Z,93.06
2023-02-11T03:57:25.247Z,93.03
2023-02-11T03:59:30.288Z,93.17
2023-02-11T04:01:36.531Z,93.37
2023-02-11T04:03:41.676Z,93.77
2023-02-11T04:05:46.808Z,93.34
2023-02-11T04:07:54.431Z,93.87
2023-02-11T04:10:00.939Z,93.75
2023-02-11T04:12:06.192Z,93.57
2023-02-11T04:14:11.464Z,94.07
2023-02-11T04:16:16.598Z,94.21
2023-02-11T04:18:21.693Z,93.89
2023-02-11T04:20:27.044Z,94.18
2023-02-11T04:22:33.793Z,93.97
2023-02-11T04:24:44.472Z,94.34
2023-02-11T04:26:49.599Z,94.10
2023-02-11T04:28:54.832Z,94.30
2023-02-11T04:31:01.819Z,93.90
2023-02-11T04:33:07.184Z,94.83
2023-02-11T04:35:12.190Z,94.54
2023-02-11T04:37:17.517Z,94.90
2023-02-11T04:39:22.627Z,94.70
2023-02-11T04:41:30.561Z,94.94
2023-02-11T04:43:37.845Z,95.13
2023-02-11T04:45:43.296Z,94.79
2023-02-11T04:47:50.976Z,95.39
2023-02-11T04:49:56.639Z,95.32
2023-02-11T04:52:06.791Z,95.50
2023-02-11T04:54:12.220Z,95.28
2023-02-11T04:56:17.645Z,95.42
2023-02-11T04:58:25.246Z,95.72
2023-02-11T05:00:30.458Z,95.37
2023-02-11T05:02:37.073Z,95.43
2023-02-11T05:04:42.140Z,95.75
2023-02-11T05:06:47.203Z,95.86
2023-02-11T05:08:52.762Z,95.92
2023-02-11T05:10:57.760Z,95.52
2023-02-11T05:13:02.939Z,95.94
2023-02-11T05:15:15.046Z,95.62
2023-02-11T05:17:20.063Z,95.90
2023-02-11T05:19:28.177Z,96.05
2023-02-11T05:21:32.996Z,95.84
2023-02-11T05:23:41.982Z,96.09
2023-02-11T05:25:47.858Z,95.93
2023-02-11T05:27:52.874Z,96.09
2023-02-11T05:29:57.773Z,96.11
2023-02-11T05:32:05.192Z,95.89
2023-02-11T05:34:11.650Z,96.32
2023-02-11T05:36:16.962Z,96.18
2023-02-11T05:38:21.919Z,96.26
2023-02-11T05:40:26.871Z,96.50
2023-02-11T05:42:31.845Z,96.53
2023-02-11T05:44:36.707Z,96.49
2023-02-11T05:46:42.027Z,96.42
2023-02-11T05:48:49.790Z,96.64
2023-02-11T05:50:55.735Z,96.64
2023-02-11T05:53:00.717Z,97.03
2023-02-11T05:55:06.071Z,96.60
2023-02-11T05:57:11.013Z,96.50
2023-02-11T05:59:17.461Z,96.76
2023-02-11T06:01:22.568Z,97.00
2023-02-11T06:03:27.654Z,96.99
2023-02-11T06:05:38.398Z,96.99
2023-02-11T06:07:44.760Z,96.81
2023-02-11T06:09:49.545Z,96.84
2023-02-11T06:11:59.941Z,96.69
2023-02-11T06:14:06.265Z,96.70
2023-02-11T06:16:12.195Z,96.67
2023-02-11T06:18:19.192Z,96.70
2023-02-11T06:20:24.128Z,96.81
2023-02-11T06:22:32.017Z,96.97
2023-02-11T06:24:54.992Z,96.96
2023-02-11T06:27:02.417Z,97.00
2023-02-11T06:29:07.453Z,97.02
2023-02-11T06:31:13.213Z,97.50
2023-02-11T06:33:20.765Z,97.46
2023-02-11T06:35:28.018Z,97.45
2023-02-11T06:37:37.401Z,97.58
2023-02-11T06:39:43.242Z,97.68
2023-02-11T06:41:53.867Z,97.13
2023-02-11T06:43:59.148Z,97.69
2023-02-11T06:46:04.034Z,97.27
2023-02-11T06:48:15.456Z,97.24
2023-02-11T06:50:20.362Z,97.73
2023-02-11T06:52:26.408Z,97.58
2023-02-11T06:54:36.862Z,97.39
2023-02-11T06:56:44.460Z,97.46
2023-02-11T06:58:51.550Z,97.83
2023-02-11T07:00:59.017Z,97.86
2023-02-11T07:03:05.054Z,98.18
2023-02-11T07:05:11.436Z,98.00
2023-02-11T07:07:19.542Z,97.93
2023-02-11T07:09:24.998Z,97.88
2023-02-11T07:11:33.798Z,97.83
2023-02-11T07:13:40.672Z,97.83
2023-02-11T07:15:46.015Z,98.10
2023-02-11T07:17:54.043Z,98.22
2023-02-11T07:19:58.957Z,98.29
2023-02-11T07:22:06.024Z,98.34
2023-02-11T07:24:12.101Z,98.34
2023-02-11T07:26:23.157Z,98.25
2023-02-11T07:28:31.086Z,98.32
2023-02-11T07:30:39.472Z,98.04
2023-02-11T07:32:44.714Z,97.97
2023-02-11T07:34:50.105Z,98.10
2023-02-11T07:36:55.382Z,97.98
2023-02-11T07:39:00.585Z,98.38
2023-02-11T07:41:06.619Z,98.28
2023-02-11T07:43:12.084Z,98.39
2023-02-11T07:45:20.905Z,98.54
2023-02-11T07:47:25.777Z,98.58
2023-02-11T07:49:31.067Z,98.43
2023-02-11T07:51:38.251Z,98.27
2023-02-11T07:53:47.830Z,98.45
2023-02-11T07:55:53.091Z,98.31
2023-02-11T07:57:58.204Z,98.57
2023-02-11T08:00:05.006Z,98.73
2023-02-11T08:02:16.103Z,98.23
2023-02-11T08:04:21.226Z,98.34
2023-02-11T08:06:32.211Z,98.07
2023-02-11T08:08:37.722Z,98.13
2023-02-11T08:10:44.569Z,98.27
2023-02-11T08:12:54.309Z,98.03
2023-02-11T08:15:00.925Z,97.98
2023-02-11T08:17:06.798Z,98.02
2023-02-11T08:19:17.552Z,97.70
2023-02-11T08:21:25.016Z,97.84
2023-02-11T08:23:30.946Z,97.69
2023-02-11T08:25:36.344Z,97.63
2023-02-11T08:27:43.624Z,97.37
2023-02-11T08:29:50.401Z,97.58
2023-02-11T08:31:56.719Z,97.65
2023-02-11T08:34:03.713Z,97.65
2023-02-11T08:36:15.683Z,97.54
2023-02-11T08:38:21.893Z,97.57
2023-02-11T08:40:29.943Z,97.35
2023-02-11T08:42:47.503Z,97.27
2023-02-11T08:44:52.635Z,97.31
2023-02-11T08:47:00.327Z,97.59
2023-02-11T08:49:08.038Z,97.32
2023-02-11T08:51:27.852Z,97.36
2023-02-11T08:53:37.438Z,97.26
2023-02-11T08:55:43.612Z,97.24
2023-02-11T08:57:49.289Z,97.25
2023-02-11T08:59:57.484Z,97.20
2023-02-11T09:02:04.989Z,97.12
2023-02-11T09:04:11.104Z,96.91
2023-02-11T09:06:19.844Z,97.16
2023-02-11T09:08:26.059Z,96.68
2023-02-11T09:10:31.297Z,96.67
2023-02-11T09:12:36.541Z,96.94
2023-02-11T09:14:42.119Z,96.80
2023-02-11T09:16:48.113Z,96.38
2023-02-11T09:18:55.677Z,96.60
2023-02-11T09:21:06.198Z,96.72
2023-02-11T09:23:18.675Z,96.17
2023-02-11T09:25:27.252Z,96.22
2023-02-11T09:27:32.967Z,95.96
2023-02-11T09:29:41.615Z,95.95
2023-02-11T09:31:50.593Z,95.87
2023-02-11T09:34:00.879Z,95.94
2023-02-11T09:36:06.949Z,95.62
2023-02-11T09:38:16.371Z,95.52
2023-02-11T09:40:23.201Z,95.62
2023-02-11T09:42:44.522Z,95.68
2023-02-11T09:44:53.227Z,95.54
2023-02-11T09:47:01.696Z,94.57
2023-02-11T09:49:09.463Z,94.86
2023-02-11T09:51:24.007Z,93.37
2023-02-11T09:53:41.673Z,94.28
2023-02-11T09:55:55.969Z,94.03
2023-02-11T09:58:08.092Z,93.30
2023-02-11T10:00:22.968Z,92.44
2023-02-11T10:02:38.317Z,92.29
2023-02-11T10:05:04.173Z,91.34
2023-02-11T10:07:21.884Z,90.75
2023-02-11T10:09:50.574Z,90.89
2023-02-11T10:12:06.612Z,90.42
2023-02-11T10:14:24.702Z,90.47
2023-02-11T10:16:47.881Z,90.78
2023-02-11T10:19:22.058Z,89.57
2023-02-11T10:21:41.861Z,88.79
2023-02-11T10:23:52.167Z,89.13
2023-02-11T10:26:02.569Z,89.53
2023-02-11T10:28:19.878Z,87.84
2023-02-11T10:30:33.142Z,88.00
2023-02-11T10:32:47.986Z,88.60
2023-02-11T10:34:53.910Z,87.75
2023-02-11T10:37:02.474Z,86.76
2023-02-11T10:39:15.420Z,88.06
2023-02-11T10:41:27.170Z,87.07
2023-02-11T10:43:36.002Z,86.83
2023-02-11T10:45:50.846Z,86.22
2023-02-11T10:47:56.206Z,86.25
2023-02-11T10:50:03.907Z,86.36
2023-02-11T10:52:18.172Z,86.15
2023-02-11T10:54:37.695Z,85.75
2023-02-11T10:56:53.779Z,86.54
2023-02-11T10:59:02.324Z,86.08
2023-02-11T11:01:23.420Z,85.34
2023-02-11T11:03:31.942Z,85.88
2023-02-11T11:05:48.732Z,85.88
2023-02-11T11:08:00.987Z,85.68
2023-02-11T11:10:09.974Z,85.29
2023-02-11T11:12:35.212Z,85.11
2023-02-11T11:14:41.722Z,85.86
2023-02-11T11:16:55.812Z,84.41
2023-02-11T11:19:24.618Z,84.82
2023-02-11T11:21:45.277Z,84.53
2023-02-11T11:23:56.553Z,84.25
2023-02-11T11:26:09.095Z,84.47
2023-02-11T11:28:27.059Z,84.35
2023-02-11T11:30:43.485Z,83.91
2023-02-11T11:32:57.954Z,83.79
2023-02-11T11:35:06.458Z,83.20
2023-02-11T11:37:21.752Z,82.97
2023-02-11T11:39:29.489Z,82.95
2023-02-11T11:41:37.115Z,83.01
2023-02-11T11:44:07.734Z,83.66
2023-02-11T11:46:13.144Z,83.45
2023-02-11T11:48:26.195Z,83.12
2023-02-11T11:50:39.356Z,82.90
2023-02-11T11:52:48.979Z,83.07
2023-02-11T11:55:01.900Z,82.74
2023-02-11T11:57:17.612Z,82.93
2023-02-11T11:59:25.891Z,83.29
2023-02-11T12:01:46.620Z,83.05
2023-02-11T12:04:39.448Z,83.53
2023-02-11T12:06:55.931Z,83.88
2023-02-11T12:09:12.575Z,82.81
2023-02-11T12:11:30.191Z,82.43
2023-02-11T12:13:47.333Z,82.72
2023-02-11T12:16:07.008Z,82.54
2023-02-11T12:18:38.306Z,82.38
2023-02-11T12:20:59.830Z,83.07
2023-02-11T12:23:34.696Z,82.70
2023-02-11T12:25:49.643Z,82.65
2023-02-11T12:28:19.593Z,81.69
2023-02-11T12:30:40.623Z,82.62
2023-02-11T12:32:58.584Z,82.93
2023-02-11T12:35:21.025Z,81.75
2023-02-11T12:37:39.418Z,81.21
2023-02-11T12:39:54.349Z,81.70
2023-02-11T12:42:28.538Z,81.81
2023-02-11T12:44:56.257Z,81.60
2023-02-11T12:47:12.840Z,80.72
2023-02-11T12:49:39.265Z,80.84
2023-02-11T12:51:56.980Z,80.20
2023-02-11T12:54:21.057Z,79.71
2023-02-11T12:56:31.330Z,80.53
2023-02-11T12:58:47.069Z,80.75
2023-02-11T13:00:55.940Z,80.37
2023-02-11T13:03:11.614Z,80.21
2023-02-11T13:05:27.830Z,79.58
2023-02-11T13:07:40.251Z,79.17
2023-02-11T13:09:50.447Z,79.66
2023-02-11T13:12:21.032Z,79.66
2023-02-11T13:14:32.576Z,78.78
2023-02-11T13:16:44.381Z,78.38
2023-02-11T13:18:58.009Z,77.63
2023-02-11T13:21:24.934Z,78.22
2023-02-11T13:23:41.536Z,78.00
2023-02-11T13:25:51.903Z,77.93
2023-02-11T13:28:06.312Z,77.36
2023-02-11T13:30:28.636Z,77.87
2023-02-11T13:33:09.659Z,77.36
2023-02-11T13:35:31.098Z,76.56
2023-02-11T13:37:41.950Z,77.02
2023-02-11T13:40:02.479Z,77.50
2023-02-11T13:42:07.710Z,77.54
2023-02-11T13:44:29.352Z,77.72
2023-02-11T13:46:54.281Z,76.42
2023-02-11T13:49:02.463Z,76.87
2023-02-11T13:51:10.518Z,76.50
2023-02-11T13:53:16.185Z,75.54
2023-02-11T13:55:27.638Z,76.11
2023-02-11T13:57:43.422Z,76.34
2023-02-11T13:59:57.601Z,75.80
2023-02-11T14:02:21.596Z,75.77
2023-02-11T14:04:41.890Z,76.08
2023-02-11T14:07:46.215Z,75.69
2023-02-11T14:09:53.480Z,75.47
2023-02-11T14:12:40.679Z,75.72
2023-02-11T14:15:15.614Z,74.65
2023-02-11T14:17:31.088Z,75.89
2023-02-11T14:19:37.590Z,74.93
2023-02-11T14:21:45.678Z,75.33
2023-02-11T14:23:58.347Z,75.50
2023-02-11T14:26:25.627Z,74.75
2023-02-11T14:28:36.570Z,75.44
2023-02-11T14:30:52.452Z,75.33
2023-02-11T14:33:26.390Z,75.20
2023-02-11T14:35:35.255Z,75.29
2023-02-11T14:37:53.786Z,75.02
2023-02-11T14:40:19.773Z,74.82
2023-02-11T14:42:31.090Z,75.32
2023-02-11T14:44:37.310Z,74.92
2023-02-11T14:47:11.622Z,75.39
2023-02-11T14:49:28.122Z,75.43
2023-02-11T14:51:37.088Z,75.55
2023-02-11T14:53:51.228Z,75.36
2023-02-11T14:56:00.436Z,75.67
2023-02-11T14:58:21.611Z,75.71
2023-02-11T15:00:27.149Z,75.54
2023-02-11T15:02:36.770Z,75.63
2023-02-11T15:04:42.272Z,75.59
2023-02-11T15:06:53.149Z,75.75
2023-02-11T15:09:01.588Z,75.58
2023-02-11T15:11:17.426Z,75.81
2023-02-11T15:13:31.207Z,75.56
2023-02-11T15:15:43.318Z,75.48
2023-02-11T15:17:57.607Z,76.11
2023-02-11T15:20:06.485Z,75.49
2023-02-11T15:22:22.593Z,76.12
2023-02-11T15:24:32.814Z,76.19
2023-02-11T15:26:40.435Z,75.78
2023-02-11T15:28:52.275Z,76.36
2023-02-11T15:31:05.110Z,76.08
2023-02-11T15:33:25.750Z,76.55
2023-02-11T15:35:38.120Z,76.04
2023-02-11T15:37:48.290Z,75.90
2023-02-11T15:39:57.724Z,76.03
2023-02-11T15:42:27.269Z,76.66
2023-02-11T15:44:38.411Z,76.26
2023-02-11T15:46:47.862Z,76.67
2023-02-11T15:48:56.637Z,76.92
2023-02-11T15:51:08.357Z,76.73
2023-02-11T15:53:28.323Z,76.74
2023-02-11T15:55:35.339Z,76.93
2023-02-11T15:57:45.837Z,76.91
2023-02-11T15:59:56.842Z,77.55
2023-02-11T16:02:10.015Z,76.60
2023-02-11T16:04:30.488Z,76.79
2023-02-11T16:06:41.912Z,77.16
2023-02-11T16:08:59.846Z,76.59
2023-02-11T16:11:09.216Z,76.72
2023-02-11T16:13:28.567Z,77.30
2023-02-11T16:16:01.827Z,77.29
2023-02-11T16:18:15.773Z,77.48
2023-02-11T16:20:22.257Z,77.31
2023-02-11T16:22:30.319Z,77.32
2023-02-11T16:24:37.023Z,78.00
2023-02-11T16:26:45.340Z,78.37
2023-02-11T16:28:54.263Z,77.93
2023-02-11T16:34:32.244Z,77.96
2023-02-11T16:36:37.313Z,77.98
2023-02-11T16:38:42.255Z,78.09
2023-02-11T16:40:49.814Z,78.62
2023-02-11T16:42:56.036Z,78.66
2023-02-11T16:45:04.034Z,78.50
2023-02-11T16:47:19.696Z,78.95
2023-02-11T16:49:27.833Z,78.40
2023-02-11T16:51:33.081Z,78.98
2023-02-11T16:53:37.940Z,79.00
2023-02-11T16:55:43.144Z,79.42
2023-02-11T16:57:51.205Z,79.33
2023-02-11T17:00:03.891Z,79.63
2023-02-11T17:02:17.017Z,79.26
2023-02-11T17:04:24.156Z,79.46
2023-02-11T17:06:30.119Z,79.58
2023-02-11T17:08:36.450Z,79.92
2023-02-11T17:10:41.563Z,80.14
2023-02-11T17:12:46.881Z,79.99
2023-02-11T17:14:51.851Z,80.18
2023-02-11T17:17:02.687Z,79.85
2023-02-11T17:19:11.015Z,80.01
2023-02-11T17:21:16.365Z,80.40
2023-02-11T17:23:21.485Z,80.30
2023-02-11T17:25:26.883Z,80.27
2023-02-11T17:27:32.010Z,80.33
2023-02-11T17:29:37.020Z,80.86
2023-02-11T17:31:43.131Z,80.32
2023-02-11T17:33:51.780Z,80.76
2023-02-11T17:36:06.802Z,80.96
2023-02-11T17:38:20.151Z,81.05
2023-02-11T17:40:25.688Z,81.05
2023-02-11T17:42:31.448Z,81.16
2023-02-11T17:44:37.508Z,81.37
2023-02-11T17:46:42.635Z,81.71
2023-02-11T17:48:47.974Z,81.13
2023-02-11T17:50:54.575Z,81.44
2023-02-11T17:53:02.597Z,81.34
2023-02-11T17:55:08.956Z,81.55
2023-02-11T17:57:14.856Z,81.60
2023-02-11T17:59:21.274Z,81.94
2023-02-11T18:01:26.201Z,81.87
2023-02-11T18:03:31.095Z,81.51
2023-02-11T18:05:42.464Z,82.25
2023-02-11T18:07:48.145Z,82.08
2023-02-11T18:09:58.950Z,82.62
2023-02-11T18:12:04.231Z,82.01
2023-02-11T18:14:10.787Z,82.02
2023-02-11T18:16:17.370Z,82.29
2023-02-11T18:18:22.419Z,82.18
2023-02-11T18:20:27.643Z,82.43
2023-02-11T18:22:39.815Z,82.28
2023-02-11T18:24:49.720Z,82.48
2023-02-11T18:26:57.649Z,82.31
2023-02-11T18:29:03.965Z,82.29
2023-02-11T18:31:10.352Z,82.63
2023-02-11T18:33:21.069Z,82.87
2023-02-11T18:35:27.029Z,82.88
2023-02-11T18:37:32.257Z,82.79
2023-02-11T18:39:37.307Z,82.83
2023-02-11T18:41:43.803Z,82.73
2023-02-11T18:43:52.118Z,83.06
2023-02-11T18:45:57.201Z,83.20
2023-02-11T18:48:05.561Z,82.96
2023-02-11T18:50:14.015Z,82.78
2023-02-11T18:52:19.668Z,82.85
2023-02-11T18:54:25.043Z,82.64
2023-02-11T18:56:30.782Z,83.15
2023-02-11T18:58:37.700Z,82.85
2023-02-11T19:00:50.922Z,82.82
2023-02-11T19:02:58.471Z,83.23
2023-02-11T19:05:06.259Z,83.35
2023-02-11T19:07:11.492Z,83.09
2023-02-11T19:09:19.861Z,83.15
2023-02-11T19:11:45.210Z,83.27
2023-02-11T19:13:51.931Z,83.59
2023-02-11T19:16:01.954Z,83.51
2023-02-11T19:18:07.262Z,83.76
2023-02-11T19:20:13.034Z,83.66
2023-02-11T19:22:19.717Z,83.30
2023-02-11T19:24:26.355Z,83.25
2023-02-11T19:26:32.574Z,83.83
2023-02-11T19:28:38.336Z,83.49
2023-02-11T19:30:45.030Z,83.82
2023-02-11T19:32:57.173Z,83.48
2023-02-11T19:35:02.315Z,83.60
2023-02-11T19:37:07.308Z,83.76
2023-02-11T19:39:13.172Z,83.71
2023-02-11T19:41:22.528Z,83.45
2023-02-11T19:43:30.262Z,83.69
2023-02-11T19:45:35.133Z,83.89
2023-02-11T19:47:40.235Z,83.77
2023-02-11T19:49:51.126Z,83.84
2023-02-11T19:51:58.571Z,83.86
2023-02-11T19:54:03.782Z,84.15
2023-02-11T19:56:12.859Z,84.02
2023-02-11T19:58:20.913Z,84.29
2023-02-11T20:00:25.808Z,84.37
2023-02-11T20:02:31.407Z,83.95
2023-02-11T20:04:36.387Z,84.31
2023-02-11T20:06:44.197Z,84.75
2023-02-11T20:08:49.337Z,84.39
2023-02-11T20:10:54.442Z,84.56
2023-02-11T20:12:59.520Z,84.06
2023-02-11T20:15:04.243Z,84.36
2023-02-11T20:17:11.277Z,84.92
2023-02-11T20:19:18.395Z,84.83
2023-02-11T20:21:26.427Z,84.55
2023-02-11T20:23:36.455Z,84.99
2023-02-11T20:25:42.564Z,84.77
2023-02-11T20:27:47.731Z,84.75
2023-02-11T20:29:52.733Z,84.77
2023-02-11T20:31:57.666Z,85.24
2023-02-11T20:34:03.242Z,84.96
2023-02-11T20:36:10.533Z,85.20
2023-02-11T20:38:15.638Z,85.29
2023-02-11T20:40:24.495Z,85.20
2023-02-11T20:42:30.550Z,85.58
2023-02-11T20:44:37.063Z,85.66
2023-02-11T20:46:46.103Z,85.31
2023-02-11T20:48:51.545Z,85.19
2023-02-11T20:50:58.860Z,85.24
2023-02-11T20:53:03.888Z,85.51
2023-02-11T20:55:09.521Z,85.04
2023-02-11T20:57:16.881Z,85.89
2023-02-11T20:59:22.512Z,85.35
2023-02-11T21:01:29.744Z,85.35
2023-02-11T21:03:35.151Z,85.91
2023-02-11T21:05:40.009Z,85.84
2023-02-11T21:07:47.131Z,85.49
2023-02-11T21:09:51.987Z,85.40
2023-02-11T21:11:57.651Z,85.20
2023-02-11T21:14:07.267Z,85.23
2023-02-11T21:16:14.954Z,85.10
2023-02-11T21:18:20.669Z,85.23
2023-02-11T21:20:25.662Z,85.01
2023-02-11T21:22:30.585Z,84.96
2023-02-11T21:24:37.193Z,85.10
2023-02-11T21:26:42.575Z,85.14
2023-02-11T21:28:49.644Z,85.50
2023-02-11T21:31:00.792Z,84.87
2023-02-11T21:33:05.719Z,85.53
2023-02-11T21:35:11.344Z,85.08
2023-02-11T21:37:16.227Z,85.44
2023-02-11T21:39:21.271Z,85.31
2023-02-11T21:41:27.478Z,85.39
2023-02-11T21:43:41.587Z,85.07
2023-02-11T21:45:49.545Z,85.17
2023-02-11T21:47:57.212Z,85.39
2023-02-11T21:50:02.608Z,85.43
2023-02-11T21:52:07.886Z,85.47
2023-02-11T21:54:14.601Z,85.45
2023-02-11T21:56:21.950Z,85.66
2023-02-11T21:58:26.709Z,85.38
2023-02-11T22:00:32.065Z,85.37
2023-02-11T22:02:36.973Z,85.65
2023-02-11T22:04:44.643Z,85.52
2023-02-11T22:06:50.755Z,85.82
2023-02-11T22:08:56.072Z,85.92
2023-02-11T22:11:05.562Z,85.85
2023-02-11T22:13:10.437Z,85.92
2023-02-11T22:15:16.448Z,86.13
2023-02-11T22:17:22.049Z,86.05
2023-02-11T22:19:27.562Z,85.91
2023-02-11T22:21:35.144Z,85.81
2023-02-11T22:23:40.998Z,85.98
2023-02-11T22:25:46.126Z,86.28
2023-02-11T22:27:51.576Z,86.26
2023-02-11T22:29:59.778Z,86.38
2023-02-11T22:32:07.066Z,86.18
2023-02-11T22:34:12.086Z,86.51
2023-02-11T22:36:23.463Z,86.70
2023-02-11T22:38:32.106Z,86.88
2023-02-11T22:40:37.106Z,86.61
2023-02-11T22:42:41.972Z,87.00
2023-02-11T22:44:47.031Z,86.85
2023-02-11T22:46:53.652Z,86.92
2023-02-11T22:48:59.656Z,86.59
2023-02-11T22:51:08.444Z,86.80
2023-02-11T22:53:13.455Z,86.27
2023-02-11T22:55:21.036Z,86.98
2023-02-11T22:57:26.071Z,87.20
2023-02-11T22:59:31.027Z,86.93
2023-02-11T23:01:36.809Z,87.15
2023-02-11T23:03:42.614Z,86.81
2023-02-11T23:05:50.617Z,86.69
2023-02-11T23:07:55.651Z,87.05
2023-02-11T23:10:00.785Z,87.04
2023-02-11T23:12:11.528Z,86.74
2023-02-11T23:14:16.801Z,86.84
2023-02-11T23:16:24.905Z,86.85
2023-02-11T23:18:29.845Z,87.02
2023-02-11T23:20:36.835Z,87.15
2023-02-11T23:22:41.812Z,87.39
2023-02-11T23:24:46.831Z,87.59
2023-02-11T23:26:51.807Z,87.38
2023-02-11T23:29:02.831Z,87.35
2023-02-11T23:31:16.232Z,87.20
2023-02-11T23:33:21.215Z,87.18
2023-02-11T23:35:26.179Z,87.39
2023-02-11T23:37:31.055Z,87.34
2023-02-11T23:39:37.936Z,87.34
2023-02-11T23:41:42.843Z,87.33
2023-02-11T23:43:47.901Z,87.38
2023-02-11T23:45:56.010Z,87.25
2023-02-11T23:48:01.209Z,87.22
2023-02-11T23:50:06.409Z,87.07
2023-02-11T23:52:11.336Z,87.42
2023-02-11T23:54:17.980Z,87.25
2023-02-11T23:56:25.842Z,87.05
2023-02-11T23:58:30.702Z,87.35
